sensor_id;sensor_type;location;lat;lon;timestamp;P1;durP1;ratioP1;P2;durP2;ratioP2
61638;SDS011;47544;52.484;4.658;2023-05-20T00:00:06;11.35;;;4.90;;
61638;SDS011;47544;52.484;4.658;2023-05-20T00:00:18;12.00;;;5.20;;
61638;SDS011;47544;52.484;4.658;2023-05-20T00:00:30;13.98;;;5.53;;
61638;SDS011;47544;52.484;4.658;2023-05-20T00:00:41;12.88;;;5.47;;
61638;SDS011;47544;52.484;4.658;2023-05-20T00:00:52;12.30;;;5.40;;
61638;SDS011;47544;52.484;4.658;2023-05-20T00:01:04;11.18;;;5.18;;
61638;SDS011;47544;52.484;4.658;2023-05-20T00:01:14;12.13;;;5.15;;
61638;SDS011;47544;52.484;4.658;2023-05-20T00:01:26;12.07;;;5.20;;
61638;SDS011;47544;52.484;4.658;2023-05-20T00:01:37;11.35;;;5.22;;
61638;SDS011;47544;52.484;4.658;2023-05-20T00:01:48;11.85;;;5.57;;
61638;SDS011;47544;52.484;4.658;2023-05-20T00:01:59;12.18;;;5.55;;
61638;SDS011;47544;52.484;4.658;2023-05-20T00:02:10;12.20;;;5.55;;
61638;SDS011;47544;52.484;4.658;2023-05-20T00:02:21;12.15;;;5.72;;
61638;SDS011;47544;52.484;4.658;2023-05-20T00:02:33;11.20;;;5.75;;
61638;SDS011;47544;52.484;4.658;2023-05-20T00:02:44;11.57;;;5.68;;
61638;SDS011;47544;52.484;4.658;2023-05-20T00:02:55;11.88;;;5.63;;
61638;SDS011;47544;52.484;4.658;2023-05-20T00:03:09;14.20;;;6.10;;
61638;SDS011;47544;52.484;4.658;2023-05-20T00:03:23;13.77;;;6.28;;
61638;SDS011;47544;52.484;4.658;2023-05-20T00:03:34;13.25;;;5.93;;
61638;SDS011;47544;52.484;4.658;2023-05-20T00:03:45;12.52;;;5.78;;
61638;SDS011;47544;52.484;4.658;2023-05-20T00:03:55;12.77;;;5.57;;
61638;SDS011;47544;52.484;4.658;2023-05-20T00:04:07;12.20;;;5.65;;
61638;SDS011;47544;52.484;4.658;2023-05-20T00:04:19;11.23;;;5.53;;
61638;SDS011;47544;52.484;4.658;2023-05-20T00:04:31;10.57;;;5.53;;
61638;SDS011;47544;52.484;4.658;2023-05-20T00:04:42;10.18;;;5.40;;
61638;SDS011;47544;52.484;4.658;2023-05-20T00:04:53;9.50;;;5.47;;
61638;SDS011;47544;52.484;4.658;2023-05-20T00:05:04;10.40;;;5.38;;
61638;SDS011;47544;52.484;4.658;2023-05-20T00:05:15;9.88;;;5.28;;
61638;SDS011;47544;52.484;4.658;2023-05-20T00:05:26;11.32;;;5.45;;
61638;SDS011;47544;52.484;4.658;2023-05-20T00:05:37;11.10;;;5.75;;
61638;SDS011;47544;52.484;4.658;2023-05-20T00:05:49;11.55;;;6.10;;
61638;SDS011;47544;52.484;4.658;2023-05-20T00:06:01;11.82;;;6.10;;
61638;SDS011;47544;52.484;4.658;2023-05-20T00:06:12;11.73;;;5.80;;
61638;SDS011;47544;52.484;4.658;2023-05-20T00:06:22;12.80;;;6.00;;
61638;SDS011;47544;52.484;4.658;2023-05-20T00:06:33;12.02;;;5.90;;
61638;SDS011;47544;52.484;4.658;2023-05-20T00:06:44;10.60;;;5.55;;
61638;SDS011;47544;52.484;4.658;2023-05-20T00:06:55;9.18;;;4.85;;
61638;SDS011;47544;52.484;4.658;2023-05-20T00:07:06;9.95;;;5.20;;
61638;SDS011;47544;52.484;4.658;2023-05-20T00:07:17;10.75;;;5.95;;
61638;SDS011;47544;52.484;4.658;2023-05-20T00:07:29;10.85;;;6.07;;
61638;SDS011;47544;52.484;4.658;2023-05-20T00:07:40;11.70;;;6.00;;
61638;SDS011;47544;52.484;4.658;2023-05-20T00:07:51;13.18;;;6.13;;
61638;SDS011;47544;52.484;4.658;2023-05-20T00:08:02;14.05;;;6.50;;
61638;SDS011;47544;52.484;4.658;2023-05-20T00:08:17;12.85;;;6.30;;
61638;SDS011;47544;52.484;4.658;2023-05-20T00:08:29;13.10;;;6.28;;
61638;SDS011;47544;52.484;4.658;2023-05-20T00:08:40;12.77;;;5.97;;
61638;SDS011;47544;52.484;4.658;2023-05-20T00:08:51;12.40;;;6.00;;
61638;SDS011;47544;52.484;4.658;2023-05-20T00:09:02;11.68;;;5.80;;
61638;SDS011;47544;52.484;4.658;2023-05-20T00:09:14;12.00;;;6.10;;
61638;SDS011;47544;52.484;4.658;2023-05-20T00:09:26;12.52;;;6.22;;
61638;SDS011;47544;52.484;4.658;2023-05-20T00:09:39;11.52;;;6.07;;
61638;SDS011;47544;52.484;4.658;2023-05-20T00:09:50;12.95;;;5.80;;
61638;SDS011;47544;52.484;4.658;2023-05-20T00:10:01;12.15;;;6.03;;
61638;SDS011;47544;52.484;4.658;2023-05-20T00:10:12;12.82;;;6.10;;
61638;SDS011;47544;52.484;4.658;2023-05-20T00:10:23;13.07;;;6.10;;
61638;SDS011;47544;52.484;4.658;2023-05-20T00:10:34;13.77;;;6.00;;
61638;SDS011;47544;52.484;4.658;2023-05-20T00:10:45;12.98;;;6.45;;
61638;SDS011;47544;52.484;4.658;2023-05-20T00:10:57;13.20;;;6.60;;
61638;SDS011;47544;52.484;4.658;2023-05-20T00:11:08;12.63;;;6.60;;
61638;SDS011;47544;52.484;4.658;2023-05-20T00:11:19;13.65;;;6.18;;
61638;SDS011;47544;52.484;4.658;2023-05-20T00:11:30;14.35;;;6.35;;
61638;SDS011;47544;52.484;4.658;2023-05-20T00:11:41;13.70;;;6.10;;
61638;SDS011;47544;52.484;4.658;2023-05-20T00:11:54;13.23;;;5.95;;
61638;SDS011;47544;52.484;4.658;2023-05-20T00:12:06;13.05;;;5.95;;
61638;SDS011;47544;52.484;4.658;2023-05-20T00:12:17;13.20;;;6.47;;
61638;SDS011;47544;52.484;4.658;2023-05-20T00:12:29;14.07;;;6.60;;
61638;SDS011;47544;52.484;4.658;2023-05-20T00:12:40;15.02;;;6.32;;
61638;SDS011;47544;52.484;4.658;2023-05-20T00:12:51;14.13;;;6.10;;
61638;SDS011;47544;52.484;4.658;2023-05-20T00:13:02;13.52;;;6.30;;
61638;SDS011;47544;52.484;4.658;2023-05-20T00:13:13;12.18;;;6.53;;
61638;SDS011;47544;52.484;4.658;2023-05-20T00:13:24;12.45;;;6.53;;
61638;SDS011;47544;52.484;4.658;2023-05-20T00:13:38;14.43;;;6.55;;
61638;SDS011;47544;52.484;4.658;2023-05-20T00:13:50;14.43;;;6.28;;
61638;SDS011;47544;52.484;4.658;2023-05-20T00:14:01;13.43;;;6.32;;
61638;SDS011;47544;52.484;4.658;2023-05-20T00:14:12;13.30;;;6.10;;
61638;SDS011;47544;52.484;4.658;2023-05-20T00:14:23;14.25;;;6.25;;
61638;SDS011;47544;52.484;4.658;2023-05-20T00:14:34;13.73;;;5.93;;
61638;SDS011;47544;52.484;4.658;2023-05-20T00:14:45;11.77;;;5.97;;
61638;SDS011;47544;52.484;4.658;2023-05-20T00:14:56;10.25;;;5.85;;
61638;SDS011;47544;52.484;4.658;2023-05-20T00:15:08;9.60;;;5.88;;
61638;SDS011;47544;52.484;4.658;2023-05-20T00:15:23;10.32;;;5.80;;
61638;SDS011;47544;52.484;4.658;2023-05-20T00:15:33;11.63;;;5.70;;
61638;SDS011;47544;52.484;4.658;2023-05-20T00:15:45;12.02;;;5.65;;
61638;SDS011;47544;52.484;4.658;2023-05-20T00:15:56;11.18;;;5.70;;
61638;SDS011;47544;52.484;4.658;2023-05-20T00:16:07;12.57;;;6.07;;
61638;SDS011;47544;52.484;4.658;2023-05-20T00:16:18;12.18;;;6.10;;
61638;SDS011;47544;52.484;4.658;2023-05-20T00:16:29;12.27;;;6.10;;
61638;SDS011;47544;52.484;4.658;2023-05-20T00:16:42;12.55;;;5.65;;
61638;SDS011;47544;52.484;4.658;2023-05-20T00:16:53;12.27;;;5.50;;
61638;SDS011;47544;52.484;4.658;2023-05-20T00:17:04;11.20;;;5.53;;
61638;SDS011;47544;52.484;4.658;2023-05-20T00:17:15;11.82;;;5.53;;
61638;SDS011;47544;52.484;4.658;2023-05-20T00:17:26;10.55;;;5.03;;
61638;SDS011;47544;52.484;4.658;2023-05-20T00:17:37;10.02;;;5.22;;
61638;SDS011;47544;52.484;4.658;2023-05-20T00:17:49;10.07;;;5.40;;
61638;SDS011;47544;52.484;4.658;2023-05-20T00:18:00;11.48;;;5.43;;
61638;SDS011;47544;52.484;4.658;2023-05-20T00:18:11;11.88;;;5.35;;
61638;SDS011;47544;52.484;4.658;2023-05-20T00:18:23;10.85;;;5.45;;
61638;SDS011;47544;52.484;4.658;2023-05-20T00:18:34;11.40;;;5.60;;
61638;SDS011;47544;52.484;4.658;2023-05-20T00:18:45;11.93;;;5.53;;
61638;SDS011;47544;52.484;4.658;2023-05-20T00:18:56;11.43;;;5.60;;
61638;SDS011;47544;52.484;4.658;2023-05-20T00:19:07;11.95;;;5.80;;
61638;SDS011;47544;52.484;4.658;2023-05-20T00:19:18;13.32;;;6.30;;
61638;SDS011;47544;52.484;4.658;2023-05-20T00:19:29;14.80;;;6.32;;
61638;SDS011;47544;52.484;4.658;2023-05-20T00:19:40;14.45;;;6.13;;
61638;SDS011;47544;52.484;4.658;2023-05-20T00:19:51;13.27;;;6.18;;
61638;SDS011;47544;52.484;4.658;2023-05-20T00:20:04;12.70;;;6.07;;
61638;SDS011;47544;52.484;4.658;2023-05-20T00:20:16;15.02;;;6.07;;
61638;SDS011;47544;52.484;4.658;2023-05-20T00:20:27;15.00;;;5.97;;
61638;SDS011;47544;52.484;4.658;2023-05-20T00:20:38;13.43;;;5.90;;
61638;SDS011;47544;52.484;4.658;2023-05-20T00:20:52;11.73;;;5.70;;
61638;SDS011;47544;52.484;4.658;2023-05-20T00:21:03;13.13;;;6.05;;
61638;SDS011;47544;52.484;4.658;2023-05-20T00:21:15;11.02;;;6.03;;
61638;SDS011;47544;52.484;4.658;2023-05-20T00:21:26;12.25;;;6.10;;
61638;SDS011;47544;52.484;4.658;2023-05-20T00:21:40;13.73;;;5.90;;
61638;SDS011;47544;52.484;4.658;2023-05-20T00:21:51;14.40;;;5.95;;
61638;SDS011;47544;52.484;4.658;2023-05-20T00:22:02;13.40;;;6.10;;
61638;SDS011;47544;52.484;4.658;2023-05-20T00:22:13;12.65;;;6.07;;
61638;SDS011;47544;52.484;4.658;2023-05-20T00:22:24;13.15;;;6.25;;
61638;SDS011;47544;52.484;4.658;2023-05-20T00:22:34;12.90;;;6.13;;
61638;SDS011;47544;52.484;4.658;2023-05-20T00:22:45;12.00;;;5.63;;
61638;SDS011;47544;52.484;4.658;2023-05-20T00:22:57;10.15;;;5.03;;
61638;SDS011;47544;52.484;4.658;2023-05-20T00:23:08;10.70;;;5.07;;
61638;SDS011;47544;52.484;4.658;2023-05-20T00:23:19;10.93;;;5.43;;
61638;SDS011;47544;52.484;4.658;2023-05-20T00:23:30;11.40;;;5.65;;
61638;SDS011;47544;52.484;4.658;2023-05-20T00:23:41;11.13;;;5.78;;
61638;SDS011;47544;52.484;4.658;2023-05-20T00:23:52;11.23;;;5.65;;
61638;SDS011;47544;52.484;4.658;2023-05-20T00:24:03;11.43;;;5.90;;
61638;SDS011;47544;52.484;4.658;2023-05-20T00:24:14;10.52;;;5.88;;
61638;SDS011;47544;52.484;4.658;2023-05-20T00:24:26;11.32;;;6.10;;
61638;SDS011;47544;52.484;4.658;2023-05-20T00:24:37;11.65;;;5.80;;
61638;SDS011;47544;52.484;4.658;2023-05-20T00:24:48;10.98;;;5.63;;
61638;SDS011;47544;52.484;4.658;2023-05-20T00:24:59;9.30;;;5.33;;
61638;SDS011;47544;52.484;4.658;2023-05-20T00:25:10;9.57;;;5.65;;
61638;SDS011;47544;52.484;4.658;2023-05-20T00:25:24;11.65;;;6.00;;
61638;SDS011;47544;52.484;4.658;2023-05-20T00:25:35;12.65;;;6.20;;
61638;SDS011;47544;52.484;4.658;2023-05-20T00:25:46;12.40;;;6.30;;
61638;SDS011;47544;52.484;4.658;2023-05-20T00:25:58;13.88;;;6.63;;
61638;SDS011;47544;52.484;4.658;2023-05-20T00:26:09;15.35;;;6.90;;
61638;SDS011;47544;52.484;4.658;2023-05-20T00:26:20;14.15;;;6.65;;
61638;SDS011;47544;52.484;4.658;2023-05-20T00:26:31;13.02;;;6.47;;
61638;SDS011;47544;52.484;4.658;2023-05-20T00:26:42;12.43;;;6.28;;
61638;SDS011;47544;52.484;4.658;2023-05-20T00:26:53;14.48;;;6.43;;
61638;SDS011;47544;52.484;4.658;2023-05-20T00:27:04;13.95;;;6.40;;
61638;SDS011;47544;52.484;4.658;2023-05-20T00:27:15;13.05;;;6.20;;
61638;SDS011;47544;52.484;4.658;2023-05-20T00:27:27;11.82;;;5.90;;
61638;SDS011;47544;52.484;4.658;2023-05-20T00:27:38;11.68;;;6.07;;
61638;SDS011;47544;52.484;4.658;2023-05-20T00:27:49;11.25;;;5.90;;
61638;SDS011;47544;52.484;4.658;2023-05-20T00:28:00;9.82;;;5.93;;
61638;SDS011;47544;52.484;4.658;2023-05-20T00:28:11;9.85;;;5.57;;
61638;SDS011;47544;52.484;4.658;2023-05-20T00:28:22;10.40;;;5.57;;
61638;SDS011;47544;52.484;4.658;2023-05-20T00:28:33;10.80;;;5.53;;
61638;SDS011;47544;52.484;4.658;2023-05-20T00:28:44;11.27;;;5.68;;
61638;SDS011;47544;52.484;4.658;2023-05-20T00:28:55;11.88;;;6.10;;
61638;SDS011;47544;52.484;4.658;2023-05-20T00:29:07;12.35;;;6.13;;
61638;SDS011;47544;52.484;4.658;2023-05-20T00:29:19;12.93;;;6.20;;
61638;SDS011;47544;52.484;4.658;2023-05-20T00:29:30;13.50;;;6.25;;
61638;SDS011;47544;52.484;4.658;2023-05-20T00:29:43;12.93;;;6.20;;
61638;SDS011;47544;52.484;4.658;2023-05-20T00:29:54;12.48;;;6.05;;
61638;SDS011;47544;52.484;4.658;2023-05-20T00:30:06;10.70;;;5.70;;
61638;SDS011;47544;52.484;4.658;2023-05-20T00:30:17;11.73;;;5.88;;
61638;SDS011;47544;52.484;4.658;2023-05-20T00:30:29;12.25;;;6.10;;
61638;SDS011;47544;52.484;4.658;2023-05-20T00:30:41;12.50;;;6.07;;
61638;SDS011;47544;52.484;4.658;2023-05-20T00:30:53;11.77;;;5.60;;
61638;SDS011;47544;52.484;4.658;2023-05-20T00:31:04;12.02;;;5.65;;
61638;SDS011;47544;52.484;4.658;2023-05-20T00:31:15;11.68;;;5.63;;
61638;SDS011;47544;52.484;4.658;2023-05-20T00:31:26;12.35;;;6.00;;
61638;SDS011;47544;52.484;4.658;2023-05-20T00:31:37;12.45;;;6.15;;
61638;SDS011;47544;52.484;4.658;2023-05-20T00:31:48;13.65;;;6.30;;
61638;SDS011;47544;52.484;4.658;2023-05-20T00:31:59;13.52;;;6.05;;
61638;SDS011;47544;52.484;4.658;2023-05-20T00:32:10;12.80;;;6.05;;
61638;SDS011;47544;52.484;4.658;2023-05-20T00:32:22;10.60;;;5.60;;
61638;SDS011;47544;52.484;4.658;2023-05-20T00:32:34;9.63;;;5.45;;
61638;SDS011;47544;52.484;4.658;2023-05-20T00:32:46;10.38;;;5.90;;
61638;SDS011;47544;52.484;4.658;2023-05-20T00:32:57;11.05;;;6.10;;
61638;SDS011;47544;52.484;4.658;2023-05-20T00:33:08;10.75;;;6.18;;
61638;SDS011;47544;52.484;4.658;2023-05-20T00:33:19;10.82;;;5.82;;
61638;SDS011;47544;52.484;4.658;2023-05-20T00:33:30;11.75;;;5.78;;
61638;SDS011;47544;52.484;4.658;2023-05-20T00:33:41;12.97;;;5.80;;
61638;SDS011;47544;52.484;4.658;2023-05-20T00:33:52;12.88;;;5.93;;
61638;SDS011;47544;52.484;4.658;2023-05-20T00:34:04;11.95;;;5.95;;
61638;SDS011;47544;52.484;4.658;2023-05-20T00:34:16;11.57;;;5.88;;
61638;SDS011;47544;52.484;4.658;2023-05-20T00:34:27;12.73;;;5.57;;
61638;SDS011;47544;52.484;4.658;2023-05-20T00:34:38;13.40;;;5.50;;
61638;SDS011;47544;52.484;4.658;2023-05-20T00:34:54;13.60;;;5.65;;
61638;SDS011;47544;52.484;4.658;2023-05-20T00:35:07;10.98;;;5.57;;
61638;SDS011;47544;52.484;4.658;2023-05-20T00:35:18;11.57;;;5.47;;
61638;SDS011;47544;52.484;4.658;2023-05-20T00:35:30;12.98;;;6.07;;
61638;SDS011;47544;52.484;4.658;2023-05-20T00:35:41;13.20;;;6.05;;
61638;SDS011;47544;52.484;4.658;2023-05-20T00:35:52;11.75;;;5.90;;
61638;SDS011;47544;52.484;4.658;2023-05-20T00:36:03;10.57;;;5.40;;
61638;SDS011;47544;52.484;4.658;2023-05-20T00:36:17;11.80;;;5.70;;
61638;SDS011;47544;52.484;4.658;2023-05-20T00:36:28;12.27;;;5.55;;
61638;SDS011;47544;52.484;4.658;2023-05-20T00:36:39;11.70;;;5.13;;
61638;SDS011;47544;52.484;4.658;2023-05-20T00:36:51;11.07;;;5.05;;
61638;SDS011;47544;52.484;4.658;2023-05-20T00:37:04;11.13;;;5.47;;
61638;SDS011;47544;52.484;4.658;2023-05-20T00:37:15;10.07;;;5.53;;
61638;SDS011;47544;52.484;4.658;2023-05-20T00:37:26;9.38;;;5.15;;
61638;SDS011;47544;52.484;4.658;2023-05-20T00:37:37;10.43;;;5.28;;
61638;SDS011;47544;52.484;4.658;2023-05-20T00:37:48;11.40;;;5.57;;
61638;SDS011;47544;52.484;4.658;2023-05-20T00:37:59;10.73;;;5.38;;
61638;SDS011;47544;52.484;4.658;2023-05-20T00:38:11;11.93;;;5.85;;
61638;SDS011;47544;52.484;4.658;2023-05-20T00:38:22;12.90;;;6.28;;
61638;SDS011;47544;52.484;4.658;2023-05-20T00:38:33;14.00;;;6.40;;
61638;SDS011;47544;52.484;4.658;2023-05-20T00:38:44;12.43;;;6.13;;
61638;SDS011;47544;52.484;4.658;2023-05-20T00:38:55;11.38;;;5.97;;
61638;SDS011;47544;52.484;4.658;2023-05-20T00:39:06;10.10;;;5.70;;
61638;SDS011;47544;52.484;4.658;2023-05-20T00:39:18;11.65;;;5.68;;
61638;SDS011;47544;52.484;4.658;2023-05-20T00:39:28;11.15;;;5.53;;
61638;SDS011;47544;52.484;4.658;2023-05-20T00:39:40;10.85;;;5.45;;
61638;SDS011;47544;52.484;4.658;2023-05-20T00:39:51;9.77;;;5.28;;
61638;SDS011;47544;52.484;4.658;2023-05-20T00:40:03;10.77;;;5.53;;
61638;SDS011;47544;52.484;4.658;2023-05-20T00:40:14;10.32;;;6.15;;
61638;SDS011;47544;52.484;4.658;2023-05-20T00:40:25;9.55;;;5.25;;
61638;SDS011;47544;52.484;4.658;2023-05-20T00:40:36;8.60;;;4.70;;
61638;SDS011;47544;52.484;4.658;2023-05-20T00:40:47;8.80;;;4.53;;
61638;SDS011;47544;52.484;4.658;2023-05-20T00:40:58;8.65;;;4.60;;
61638;SDS011;47544;52.484;4.658;2023-05-20T00:41:09;8.57;;;4.95;;
61638;SDS011;47544;52.484;4.658;2023-05-20T00:41:21;10.45;;;5.50;;
61638;SDS011;47544;52.484;4.658;2023-05-20T00:41:32;12.10;;;5.97;;
61638;SDS011;47544;52.484;4.658;2023-05-20T00:41:45;11.88;;;5.80;;
61638;SDS011;47544;52.484;4.658;2023-05-20T00:41:56;10.18;;;5.20;;
61638;SDS011;47544;52.484;4.658;2023-05-20T00:42:10;9.18;;;4.55;;
61638;SDS011;47544;52.484;4.658;2023-05-20T00:42:21;10.93;;;4.55;;
61638;SDS011;47544;52.484;4.658;2023-05-20T00:42:32;13.10;;;4.90;;
61638;SDS011;47544;52.484;4.658;2023-05-20T00:42:43;12.93;;;4.57;;
61638;SDS011;47544;52.484;4.658;2023-05-20T00:42:55;10.57;;;4.30;;
61638;SDS011;47544;52.484;4.658;2023-05-20T00:43:06;9.60;;;4.70;;
61638;SDS011;47544;52.484;4.658;2023-05-20T00:43:17;10.37;;;5.33;;
61638;SDS011;47544;52.484;4.658;2023-05-20T00:43:29;10.38;;;4.82;;
61638;SDS011;47544;52.484;4.658;2023-05-20T00:43:40;10.63;;;4.82;;
61638;SDS011;47544;52.484;4.658;2023-05-20T00:43:52;10.68;;;5.07;;
61638;SDS011;47544;52.484;4.658;2023-05-20T00:44:03;12.23;;;5.72;;
61638;SDS011;47544;52.484;4.658;2023-05-20T00:44:14;12.38;;;5.50;;
61638;SDS011;47544;52.484;4.658;2023-05-20T00:44:27;9.65;;;4.70;;
61638;SDS011;47544;52.484;4.658;2023-05-20T00:44:38;8.60;;;4.60;;
61638;SDS011;47544;52.484;4.658;2023-05-20T00:44:49;8.63;;;4.72;;
61638;SDS011;47544;52.484;4.658;2023-05-20T00:45:00;8.73;;;4.95;;
61638;SDS011;47544;52.484;4.658;2023-05-20T00:45:12;8.60;;;5.35;;
61638;SDS011;47544;52.484;4.658;2023-05-20T00:45:23;8.65;;;5.20;;
61638;SDS011;47544;52.484;4.658;2023-05-20T00:45:35;10.13;;;5.25;;
61638;SDS011;47544;52.484;4.658;2023-05-20T00:45:46;8.30;;;4.15;;
61638;SDS011;47544;52.484;4.658;2023-05-20T00:45:57;8.35;;;4.18;;
61638;SDS011;47544;52.484;4.658;2023-05-20T00:46:09;10.45;;;4.90;;
61638;SDS011;47544;52.484;4.658;2023-05-20T00:46:20;12.35;;;5.25;;
61638;SDS011;47544;52.484;4.658;2023-05-20T00:46:31;11.48;;;4.97;;
61638;SDS011;47544;52.484;4.658;2023-05-20T00:46:43;9.20;;;4.65;;
61638;SDS011;47544;52.484;4.658;2023-05-20T00:46:55;10.55;;;5.25;;
61638;SDS011;47544;52.484;4.658;2023-05-20T00:47:06;10.85;;;5.43;;
61638;SDS011;47544;52.484;4.658;2023-05-20T00:47:20;10.48;;;5.47;;
61638;SDS011;47544;52.484;4.658;2023-05-20T00:47:33;9.50;;;5.15;;
61638;SDS011;47544;52.484;4.658;2023-05-20T00:47:46;9.07;;;5.13;;
61638;SDS011;47544;52.484;4.658;2023-05-20T00:47:57;9.13;;;5.05;;
61638;SDS011;47544;52.484;4.658;2023-05-20T00:48:11;9.93;;;5.20;;
61638;SDS011;47544;52.484;4.658;2023-05-20T00:48:22;10.38;;;5.03;;
61638;SDS011;47544;52.484;4.658;2023-05-20T00:48:35;11.00;;;5.20;;
61638;SDS011;47544;52.484;4.658;2023-05-20T00:48:48;10.73;;;5.55;;
61638;SDS011;47544;52.484;4.658;2023-05-20T00:49:00;10.00;;;5.30;;
61638;SDS011;47544;52.484;4.658;2023-05-20T00:49:12;10.57;;;5.50;;
61638;SDS011;47544;52.484;4.658;2023-05-20T00:49:23;11.10;;;5.70;;
61638;SDS011;47544;52.484;4.658;2023-05-20T00:49:34;12.70;;;5.70;;
61638;SDS011;47544;52.484;4.658;2023-05-20T00:49:46;13.93;;;5.50;;
61638;SDS011;47544;52.484;4.658;2023-05-20T00:49:58;14.23;;;5.60;;
61638;SDS011;47544;52.484;4.658;2023-05-20T00:50:10;11.65;;;5.63;;
61638;SDS011;47544;52.484;4.658;2023-05-20T00:50:21;10.18;;;5.47;;
61638;SDS011;47544;52.484;4.658;2023-05-20T00:50:33;9.93;;;5.35;;
61638;SDS011;47544;52.484;4.658;2023-05-20T00:50:44;9.50;;;5.35;;
61638;SDS011;47544;52.484;4.658;2023-05-20T00:50:55;9.48;;;5.57;;
61638;SDS011;47544;52.484;4.658;2023-05-20T00:51:09;10.63;;;5.80;;
61638;SDS011;47544;52.484;4.658;2023-05-20T00:51:20;11.13;;;6.05;;
61638;SDS011;47544;52.484;4.658;2023-05-20T00:51:31;12.05;;;5.95;;
61638;SDS011;47544;52.484;4.658;2023-05-20T00:51:43;10.50;;;5.82;;
61638;SDS011;47544;52.484;4.658;2023-05-20T00:51:54;10.63;;;5.85;;
61638;SDS011;47544;52.484;4.658;2023-05-20T00:52:06;10.88;;;5.72;;
61638;SDS011;47544;52.484;4.658;2023-05-20T00:52:17;11.05;;;5.50;;
61638;SDS011;47544;52.484;4.658;2023-05-20T00:52:29;11.00;;;5.57;;
61638;SDS011;47544;52.484;4.658;2023-05-20T00:52:41;12.27;;;6.05;;
61638;SDS011;47544;52.484;4.658;2023-05-20T00:52:54;14.75;;;6.03;;
61638;SDS011;47544;52.484;4.658;2023-05-20T00:53:05;14.63;;;5.80;;
61638;SDS011;47544;52.484;4.658;2023-05-20T00:53:16;12.27;;;6.18;;
61638;SDS011;47544;52.484;4.658;2023-05-20T00:53:28;11.45;;;6.25;;
61638;SDS011;47544;52.484;4.658;2023-05-20T00:53:40;12.32;;;6.20;;
61638;SDS011;47544;52.484;4.658;2023-05-20T00:53:51;12.82;;;6.05;;
61638;SDS011;47544;52.484;4.658;2023-05-20T00:54:02;13.45;;;6.25;;
61638;SDS011;47544;52.484;4.658;2023-05-20T00:54:13;12.32;;;6.28;;
61638;SDS011;47544;52.484;4.658;2023-05-20T00:54:24;12.10;;;6.10;;
61638;SDS011;47544;52.484;4.658;2023-05-20T00:54:35;13.13;;;6.07;;
61638;SDS011;47544;52.484;4.658;2023-05-20T00:54:48;13.95;;;6.15;;
61638;SDS011;47544;52.484;4.658;2023-05-20T00:54:59;14.20;;;6.38;;
61638;SDS011;47544;52.484;4.658;2023-05-20T00:55:10;13.13;;;6.25;;
61638;SDS011;47544;52.484;4.658;2023-05-20T00:55:21;13.35;;;6.20;;
61638;SDS011;47544;52.484;4.658;2023-05-20T00:55:32;13.10;;;5.95;;
61638;SDS011;47544;52.484;4.658;2023-05-20T00:55:43;13.23;;;6.00;;
61638;SDS011;47544;52.484;4.658;2023-05-20T00:55:55;11.57;;;5.85;;
61638;SDS011;47544;52.484;4.658;2023-05-20T00:56:07;10.73;;;5.78;;
61638;SDS011;47544;52.484;4.658;2023-05-20T00:56:18;11.55;;;5.78;;
61638;SDS011;47544;52.484;4.658;2023-05-20T00:56:31;10.85;;;5.50;;
61638;SDS011;47544;52.484;4.658;2023-05-20T00:56:42;11.27;;;5.37;;
61638;SDS011;47544;52.484;4.658;2023-05-20T00:56:53;9.65;;;4.80;;
61638;SDS011;47544;52.484;4.658;2023-05-20T00:57:04;10.40;;;4.88;;
61638;SDS011;47544;52.484;4.658;2023-05-20T00:57:16;11.18;;;5.50;;
61638;SDS011;47544;52.484;4.658;2023-05-20T00:57:29;13.98;;;5.97;;
61638;SDS011;47544;52.484;4.658;2023-05-20T00:57:41;15.30;;;6.22;;
61638;SDS011;47544;52.484;4.658;2023-05-20T00:57:52;13.20;;;6.10;;
61638;SDS011;47544;52.484;4.658;2023-05-20T00:58:05;10.90;;;5.97;;
61638;SDS011;47544;52.484;4.658;2023-05-20T00:58:16;11.07;;;6.00;;
61638;SDS011;47544;52.484;4.658;2023-05-20T00:58:27;11.93;;;6.07;;
61638;SDS011;47544;52.484;4.658;2023-05-20T00:58:38;13.02;;;6.28;;
61638;SDS011;47544;52.484;4.658;2023-05-20T00:58:50;13.95;;;6.07;;
61638;SDS011;47544;52.484;4.658;2023-05-20T00:59:02;13.35;;;5.90;;
61638;SDS011;47544;52.484;4.658;2023-05-20T00:59:14;12.27;;;5.78;;
61638;SDS011;47544;52.484;4.658;2023-05-20T00:59:25;12.23;;;6.18;;
61638;SDS011;47544;52.484;4.658;2023-05-20T00:59:37;13.45;;;6.45;;
61638;SDS011;47544;52.484;4.658;2023-05-20T00:59:48;13.57;;;6.70;;
61638;SDS011;47544;52.484;4.658;2023-05-20T00:59:59;11.93;;;6.25;;
61638;SDS011;47544;52.484;4.658;2023-05-20T01:00:11;10.55;;;5.75;;
61638;SDS011;47544;52.484;4.658;2023-05-20T01:00:23;11.57;;;5.38;;
61638;SDS011;47544;52.484;4.658;2023-05-20T01:00:35;11.68;;;5.50;;
61638;SDS011;47544;52.484;4.658;2023-05-20T01:00:46;11.75;;;5.40;;
61638;SDS011;47544;52.484;4.658;2023-05-20T01:00:58;11.70;;;5.78;;
61638;SDS011;47544;52.484;4.658;2023-05-20T01:01:09;13.15;;;6.40;;
61638;SDS011;47544;52.484;4.658;2023-05-20T01:01:20;14.75;;;6.75;;
61638;SDS011;47544;52.484;4.658;2023-05-20T01:01:31;14.45;;;6.68;;
61638;SDS011;47544;52.484;4.658;2023-05-20T01:01:42;12.50;;;6.18;;
61638;SDS011;47544;52.484;4.658;2023-05-20T01:01:53;12.82;;;6.30;;
61638;SDS011;47544;52.484;4.658;2023-05-20T01:02:04;12.68;;;6.10;;
61638;SDS011;47544;52.484;4.658;2023-05-20T01:02:16;12.48;;;6.20;;
61638;SDS011;47544;52.484;4.658;2023-05-20T01:02:27;12.68;;;6.30;;
61638;SDS011;47544;52.484;4.658;2023-05-20T01:02:38;13.23;;;6.25;;
61638;SDS011;47544;52.484;4.658;2023-05-20T01:02:49;11.98;;;5.90;;
61638;SDS011;47544;52.484;4.658;2023-05-20T01:03:00;12.02;;;6.05;;
61638;SDS011;47544;52.484;4.658;2023-05-20T01:03:11;12.60;;;6.25;;
61638;SDS011;47544;52.484;4.658;2023-05-20T01:03:22;13.70;;;6.43;;
61638;SDS011;47544;52.484;4.658;2023-05-20T01:03:33;14.50;;;6.28;;
61638;SDS011;47544;52.484;4.658;2023-05-20T01:03:45;11.90;;;5.65;;
61638;SDS011;47544;52.484;4.658;2023-05-20T01:03:56;11.95;;;5.13;;
61638;SDS011;47544;52.484;4.658;2023-05-20T01:04:10;10.77;;;5.40;;
61638;SDS011;47544;52.484;4.658;2023-05-20T01:04:21;12.30;;;5.97;;
61638;SDS011;47544;52.484;4.658;2023-05-20T01:04:32;12.32;;;5.97;;
61638;SDS011;47544;52.484;4.658;2023-05-20T01:04:43;12.85;;;5.93;;
61638;SDS011;47544;52.484;4.658;2023-05-20T01:04:56;12.07;;;6.10;;
61638;SDS011;47544;52.484;4.658;2023-05-20T01:05:07;12.45;;;6.28;;
61638;SDS011;47544;52.484;4.658;2023-05-20T01:05:22;12.90;;;6.38;;
61638;SDS011;47544;52.484;4.658;2023-05-20T01:05:33;13.85;;;6.45;;
61638;SDS011;47544;52.484;4.658;2023-05-20T01:05:44;13.15;;;6.40;;
61638;SDS011;47544;52.484;4.658;2023-05-20T01:05:55;14.35;;;6.40;;
61638;SDS011;47544;52.484;4.658;2023-05-20T01:06:06;13.40;;;6.25;;
61638;SDS011;47544;52.484;4.658;2023-05-20T01:06:17;12.95;;;6.35;;
61638;SDS011;47544;52.484;4.658;2023-05-20T01:06:28;12.93;;;6.40;;
61638;SDS011;47544;52.484;4.658;2023-05-20T01:06:40;11.75;;;5.72;;
61638;SDS011;47544;52.484;4.658;2023-05-20T01:06:51;11.20;;;5.15;;
61638;SDS011;47544;52.484;4.658;2023-05-20T01:07:02;9.88;;;5.13;;
61638;SDS011;47544;52.484;4.658;2023-05-20T01:07:17;11.25;;;6.03;;
61638;SDS011;47544;52.484;4.658;2023-05-20T01:07:28;13.00;;;6.10;;
61638;SDS011;47544;52.484;4.658;2023-05-20T01:07:40;12.65;;;5.95;;
61638;SDS011;47544;52.484;4.658;2023-05-20T01:07:51;11.68;;;5.95;;
61638;SDS011;47544;52.484;4.658;2023-05-20T01:08:02;10.35;;;5.90;;
61638;SDS011;47544;52.484;4.658;2023-05-20T01:08:16;11.15;;;5.88;;